Metar Aviation Weather Data KMYR Myrtle Beach International

77°F Temp
72°F Dewpoint
83% Humidity
Temperature
10 MPH
16 KM/H
9 KTS
250°
West South
West

Wind Speed
Clear
Conditions
Pressure 1017 (hPa) - 30.03 (in)
Visibility 10.0 (mi) - 16.1 (km)

Current Conditions
KMYR
Myrtle Beach International
Metar :KMYR 200956Z 25009KT 10SM CLR 25/22 A3003 RMK AO2 SLP170 T02500217
Mon 20th August 05:56 am

Myrtle Beach International
  Metar Aviation API Data Provided by https://www.checkwx.com/ PHP scripts by weather34.com ©2018